createdAt,value
2018-01-30T00:02:17.557Z,1.33
2018-01-30T00:04:46.448Z,1.40
2018-01-30T00:07:14.582Z,1.20
2018-01-30T00:09:42.706Z,0.77
2018-01-30T00:12:10.839Z,0.80
2018-01-30T00:14:38.949Z,1.15
2018-01-30T00:17:07.078Z,1.00
2018-01-30T00:19:35.194Z,0.60
2018-01-30T00:22:03.353Z,0.83
2018-01-30T00:24:32.211Z,0.77
2018-01-30T00:27:00.351Z,1.20
2018-01-30T00:29:28.465Z,0.50
2018-01-30T00:31:56.588Z,0.80
2018-01-30T00:34:24.700Z,0.80
2018-01-30T00:36:52.827Z,0.70
2018-01-30T00:39:20.943Z,0.65
2018-01-30T00:41:49.096Z,0.57
2018-01-30T00:44:17.231Z,0.50
2018-01-30T00:46:45.358Z,0.47
2018-01-30T00:49:13.480Z,0.40
2018-01-30T00:51:41.651Z,0.40
2018-01-30T00:54:10.526Z,0.80
2018-01-30T00:56:38.641Z,0.40
2018-01-30T00:59:06.769Z,0.80
2018-01-30T01:01:34.876Z,0.50
2018-01-30T01:04:03.005Z,0.45
2018-01-30T01:06:31.882Z,0.60
2018-01-30T01:09:01.780Z,0.55
2018-01-30T01:11:29.897Z,0.43
2018-01-30T01:13:58.032Z,0.50
2018-01-30T01:16:26.159Z,0.65
2018-01-30T01:18:54.284Z,0.50
2018-01-30T01:21:23.174Z,0.60
2018-01-30T01:23:51.307Z,0.60
2018-01-30T01:26:19.409Z,0.57
2018-01-30T01:28:48.296Z,0.40
2018-01-30T01:31:16.420Z,0.50
2018-01-30T01:33:44.535Z,0.65
2018-01-30T01:36:12.660Z,0.50
2018-01-30T01:38:40.770Z,0.32
2018-01-30T01:41:08.900Z,0.45
2018-01-30T01:43:37.016Z,0.40
2018-01-30T01:46:05.137Z,0.50
2018-01-30T01:48:33.261Z,0.43
2018-01-30T01:51:01.385Z,0.63
2018-01-30T01:53:29.502Z,0.40
2018-01-30T01:55:57.635Z,0.60
2018-01-30T01:58:25.780Z,0.50
2018-01-30T02:00:54.656Z,0.40
2018-01-30T02:03:23.534Z,0.40
2018-01-30T02:05:51.668Z,0.50
2018-01-30T02:08:19.772Z,0.40
2018-01-30T02:10:47.933Z,0.40
2018-01-30T02:13:16.046Z,0.50
2018-01-30T02:15:44.926Z,0.60
2018-01-30T02:18:13.849Z,0.40
2018-01-30T02:20:42.702Z,0.30
2018-01-30T02:23:11.611Z,0.40
2018-01-30T02:25:39.717Z,0.50
2018-01-30T02:28:07.839Z,0.50
2018-01-30T02:30:36.732Z,0.50
2018-01-30T02:33:05.640Z,0.90
2018-01-30T02:35:34.519Z,0.50
2018-01-30T02:38:03.430Z,0.75
2018-01-30T02:40:31.544Z,0.60
2018-01-30T02:42:59.681Z,0.45
2018-01-30T02:45:27.792Z,0.75
2018-01-30T02:47:55.892Z,0.50
2018-01-30T02:50:24.794Z,0.50
2018-01-30T02:52:52.913Z,0.47
2018-01-30T02:55:21.069Z,0.50
2018-01-30T02:57:49.179Z,0.70
2018-01-30T03:00:17.303Z,0.70
2018-01-30T03:02:45.470Z,0.55
2018-01-30T03:05:14.331Z,0.53
2018-01-30T03:07:43.224Z,0.70
2018-01-30T03:10:12.104Z,0.80
2018-01-30T03:12:41.006Z,0.70
2018-01-30T03:15:09.885Z,0.55
2018-01-30T03:17:38.765Z,0.60
2018-01-30T03:20:06.901Z,0.75
2018-01-30T03:22:35.053Z,0.70
2018-01-30T03:25:03.913Z,0.75
2018-01-30T03:27:32.802Z,0.60
2018-01-30T03:30:01.704Z,0.65
2018-01-30T03:32:29.819Z,1.02
2018-01-30T03:34:57.938Z,0.88
2018-01-30T03:37:26.820Z,1.33
2018-01-30T03:39:55.716Z,0.85
2018-01-30T03:42:24.600Z,1.00
2018-01-30T03:44:53.493Z,0.80
2018-01-30T03:47:22.382Z,1.02
2018-01-30T03:49:51.304Z,0.80
2018-01-30T03:52:19.407Z,1.00
2018-01-30T03:54:47.572Z,0.70
2018-01-30T03:57:15.674Z,1.10
2018-01-30T03:59:43.793Z,1.15
2018-01-30T04:02:11.913Z,1.20
2018-01-30T04:04:40.023Z,0.90
2018-01-30T04:07:08.162Z,1.00
2018-01-30T04:09:36.273Z,1.00
2018-01-30T04:12:04.375Z,0.90
2018-01-30T04:14:32.511Z,0.80
2018-01-30T04:17:00.620Z,0.60
2018-01-30T04:19:28.743Z,1.15
2018-01-30T04:21:57.667Z,1.23
2018-01-30T04:24:25.804Z,1.10
2018-01-30T04:26:55.714Z,1.00
2018-01-30T04:29:24.601Z,0.70
2018-01-30T04:31:53.471Z,1.15
2018-01-30T04:34:21.598Z,0.98
2018-01-30T04:36:49.733Z,0.90
2018-01-30T04:39:18.617Z,1.05
2018-01-30T04:41:46.734Z,1.00
2018-01-30T04:44:14.847Z,1.30
2018-01-30T04:46:42.970Z,1.10
2018-01-30T04:49:11.102Z,1.15
2018-01-30T04:51:39.235Z,0.90
2018-01-30T04:54:07.351Z,1.35
2018-01-30T04:56:36.238Z,1.02
2018-01-30T04:59:05.360Z,1.08
2018-01-30T05:01:33.492Z,1.37
2018-01-30T05:04:01.631Z,1.10
2018-01-30T05:06:29.751Z,1.50
2018-01-30T05:08:58.631Z,1.48
2018-01-30T05:11:26.828Z,1.50
2018-01-30T05:13:54.926Z,1.65
2018-01-30T05:16:23.027Z,1.30
2018-01-30T05:18:51.165Z,1.20
2018-01-30T05:21:19.281Z,1.20
2018-01-30T05:23:47.415Z,1.25
2018-01-30T05:26:15.526Z,1.17
2018-01-30T05:28:43.654Z,1.20
2018-01-30T05:31:11.781Z,1.17
2018-01-30T05:33:39.906Z,1.30
2018-01-30T05:36:08.030Z,1.33
2018-01-30T05:38:36.917Z,1.92
2018-01-30T05:41:05.790Z,1.83
2018-01-30T05:43:33.914Z,1.90
2018-01-30T05:46:02.054Z,1.12
2018-01-30T05:48:30.157Z,1.15
2018-01-30T05:50:58.264Z,1.20
2018-01-30T05:53:26.383Z,1.48
2018-01-30T05:55:55.298Z,0.98
2018-01-30T05:58:23.406Z,0.93
2018-01-30T06:00:51.568Z,1.10
2018-01-30T06:03:19.655Z,0.90
2018-01-30T06:05:47.792Z,0.90
2018-01-30T06:08:15.916Z,0.90
2018-01-30T06:10:44.024Z,1.20
2018-01-30T06:13:12.170Z,1.10
2018-01-30T06:15:40.273Z,0.70
2018-01-30T06:18:08.449Z,1.40
2018-01-30T06:20:36.543Z,0.80
2018-01-30T06:23:05.425Z,1.20
2018-01-30T06:25:33.558Z,1.20
2018-01-30T06:28:01.695Z,1.25
2018-01-30T06:30:29.936Z,1.15
2018-01-30T06:32:58.040Z,0.95
2018-01-30T06:35:26.167Z,0.90
2018-01-30T06:37:54.292Z,1.10
2018-01-30T06:40:22.405Z,0.95
2018-01-30T06:42:50.525Z,0.90
2018-01-30T06:45:18.639Z,1.23
2018-01-30T06:47:46.775Z,1.10
2018-01-30T06:50:14.899Z,1.20
2018-01-30T06:52:43.035Z,1.15
2018-01-30T06:55:11.924Z,1.40
2018-01-30T06:57:40.804Z,0.90
2018-01-30T07:00:08.947Z,1.20
2018-01-30T07:02:37.060Z,1.15
2018-01-30T07:05:05.951Z,1.10
2018-01-30T07:07:34.824Z,1.20
2018-01-30T07:10:02.963Z,1.50
2018-01-30T07:12:31.074Z,1.50
2018-01-30T07:14:59.192Z,1.30
2018-01-30T07:17:27.335Z,1.73
2018-01-30T07:19:56.225Z,1.50
2018-01-30T07:22:25.119Z,1.70
2018-01-30T07:24:54.009Z,1.65
2018-01-30T07:27:22.892Z,1.92
2018-01-30T07:29:51.792Z,1.50
2018-01-30T07:32:19.946Z,1.90
2018-01-30T07:34:48.839Z,1.92
2018-01-30T07:37:16.961Z,1.73
2018-01-30T07:39:45.844Z,1.67
2018-01-30T07:42:13.971Z,2.10
2018-01-30T07:44:42.096Z,1.70
2018-01-30T07:47:10.206Z,1.80
2018-01-30T07:49:39.105Z,1.67
2018-01-30T07:52:07.995Z,2.10
2018-01-30T07:54:36.891Z,1.62
2018-01-30T07:57:05.774Z,1.30
2018-01-30T07:59:34.654Z,1.55
2018-01-30T08:02:02.776Z,1.53
2018-01-30T08:04:30.889Z,1.77
2018-01-30T08:06:59.019Z,1.87
2018-01-30T08:09:27.131Z,1.80
2018-01-30T08:11:55.257Z,1.90
2018-01-30T08:14:23.381Z,1.50
2018-01-30T08:16:51.488Z,1.58
2018-01-30T08:19:19.617Z,1.15
2018-01-30T08:21:47.749Z,1.83
2018-01-30T08:24:15.892Z,1.40
2018-01-30T08:26:44.784Z,1.50
2018-01-30T08:29:13.677Z,1.90
2018-01-30T08:31:41.803Z,1.52
2018-01-30T08:34:10.025Z,1.20
2018-01-30T08:36:38.888Z,1.20
2018-01-30T08:39:07.018Z,1.33
2018-01-30T08:41:35.152Z,1.70
2018-01-30T08:44:04.026Z,1.25
2018-01-30T08:46:32.927Z,1.70
2018-01-30T08:49:01.823Z,1.85
2018-01-30T08:51:30.708Z,1.43
2018-01-30T08:53:59.641Z,1.30
2018-01-30T08:56:27.753Z,1.48
2018-01-30T08:58:55.891Z,1.00
2018-01-30T09:01:24.004Z,1.70
2018-01-30T09:03:52.147Z,1.20
2018-01-30T09:06:20.250Z,1.40
2018-01-30T09:08:49.150Z,1.33
2018-01-30T09:11:17.289Z,0.98
2018-01-30T09:13:45.400Z,1.40
2018-01-30T09:16:14.311Z,1.15
2018-01-30T09:18:42.439Z,0.90
2018-01-30T09:21:10.577Z,0.90
2018-01-30T09:23:38.688Z,1.08
2018-01-30T09:26:07.574Z,0.90
2018-01-30T09:28:36.467Z,0.90
2018-01-30T09:31:05.347Z,1.00
2018-01-30T09:33:33.483Z,0.90
2018-01-30T09:36:01.599Z,1.00
2018-01-30T09:38:30.500Z,1.08
2018-01-30T09:40:59.520Z,0.98
2018-01-30T09:43:28.400Z,1.08
2018-01-30T09:45:56.515Z,1.08
2018-01-30T09:48:24.650Z,0.80
2018-01-30T09:50:52.779Z,1.20
2018-01-30T09:53:20.913Z,1.25
2018-01-30T09:55:49.038Z,1.20
2018-01-30T09:58:17.986Z,1.23
2018-01-30T10:00:46.129Z,1.27
2018-01-30T10:03:14.240Z,0.90
2018-01-30T10:05:42.462Z,1.17
2018-01-30T10:08:11.362Z,1.25
2018-01-30T10:10:39.468Z,1.27
2018-01-30T10:13:07.605Z,0.88
2018-01-30T10:15:35.725Z,1.25
2018-01-30T10:18:03.889Z,1.17
2018-01-30T10:20:38.885Z,1.00
2018-01-30T10:23:08.028Z,1.52
2018-01-30T10:25:36.150Z,3.28
2018-01-30T10:28:04.281Z,1.50
2018-01-30T10:30:32.420Z,2.00
2018-01-30T10:33:00.536Z,1.83
2018-01-30T10:35:29.435Z,1.43
2018-01-30T10:37:58.325Z,1.95
2018-01-30T10:40:26.518Z,1.52
2018-01-30T10:42:54.565Z,1.42
2018-01-30T10:45:23.484Z,1.40
2018-01-30T10:47:51.636Z,1.75
2018-01-30T10:50:20.546Z,1.30
2018-01-30T10:52:48.677Z,1.05
2018-01-30T10:55:16.794Z,1.05
2018-01-30T10:57:44.946Z,0.90
2018-01-30T11:00:13.063Z,0.88
2018-01-30T11:02:41.202Z,1.30
2018-01-30T11:05:09.405Z,1.30
2018-01-30T11:07:38.241Z,1.40
2018-01-30T11:10:07.137Z,1.10
2018-01-30T11:12:36.007Z,1.40
2018-01-30T11:15:04.918Z,1.40
2018-01-30T11:17:33.802Z,1.30
2018-01-30T11:20:02.719Z,1.60
2018-01-30T11:22:30.847Z,1.40
2018-01-30T11:24:58.957Z,1.73
2018-01-30T11:27:28.002Z,1.48
2018-01-30T11:29:56.149Z,2.00
2018-01-30T11:32:24.312Z,2.00
2018-01-30T11:34:54.078Z,2.80
2018-01-30T11:37:22.988Z,3.10
2018-01-30T11:39:51.878Z,2.47
2018-01-30T11:42:20.010Z,2.55
2018-01-30T11:44:48.114Z,2.35
2018-01-30T11:47:16.253Z,3.15
2018-01-30T11:49:44.386Z,3.20
2018-01-30T11:52:12.506Z,4.05
2018-01-30T11:54:40.631Z,3.22
2018-01-30T11:57:08.754Z,3.70
2018-01-30T11:59:36.900Z,3.72
2018-01-30T12:02:05.000Z,3.53
2018-01-30T12:04:33.113Z,3.75
2018-01-30T12:07:01.250Z,3.67
2018-01-30T12:09:30.121Z,3.70
2018-01-30T12:11:58.270Z,3.67
2018-01-30T12:14:26.405Z,3.50
2018-01-30T12:16:54.529Z,3.92
2018-01-30T12:19:29.695Z,4.07
2018-01-30T12:21:57.806Z,3.00
2018-01-30T12:24:25.932Z,4.90
2018-01-30T12:26:54.819Z,5.47
2018-01-30T12:29:22.948Z,2.83
2018-01-30T12:31:51.063Z,3.83
2018-01-30T12:34:19.957Z,3.75
2018-01-30T12:36:48.853Z,3.50
2018-01-30T12:39:17.746Z,3.05
2018-01-30T12:41:46.624Z,3.53
2018-01-30T12:44:15.520Z,2.85
2018-01-30T12:46:44.423Z,3.22
2018-01-30T12:49:12.543Z,3.35
2018-01-30T12:51:40.730Z,2.50
2018-01-30T12:54:08.870Z,2.70
2018-01-30T12:56:37.008Z,3.10
2018-01-30T12:59:05.131Z,2.58
2018-01-30T13:01:33.262Z,2.60
2018-01-30T13:04:01.390Z,2.78
2018-01-30T13:06:29.520Z,2.90
2018-01-30T13:08:57.728Z,2.30
2018-01-30T13:11:25.839Z,2.20
2018-01-30T13:13:54.725Z,2.55
2018-01-30T13:16:23.634Z,2.50
2018-01-30T13:18:51.771Z,2.90
2018-01-30T13:21:19.932Z,2.10
2018-01-30T13:23:48.068Z,2.80
2018-01-30T13:26:16.192Z,1.90
2018-01-30T13:28:45.078Z,2.62
2018-01-30T13:31:13.224Z,2.35
2018-01-30T13:33:41.331Z,3.55
2018-01-30T13:36:09.454Z,2.60
2018-01-30T13:38:37.594Z,2.03
2018-01-30T13:41:05.751Z,2.33
2018-01-30T13:43:34.670Z,2.83
2018-01-30T13:46:02.780Z,3.55
2018-01-30T13:48:30.927Z,3.00
2018-01-30T13:50:59.056Z,2.70
2018-01-30T13:53:27.933Z,2.20
2018-01-30T13:55:56.050Z,3.00
2018-01-30T13:58:24.171Z,2.50
2018-01-30T14:00:52.346Z,2.60
2018-01-30T14:03:20.482Z,2.50
2018-01-30T14:05:48.621Z,3.13
2018-01-30T14:08:17.508Z,2.30
2018-01-30T14:10:45.630Z,2.40
2018-01-30T14:13:13.800Z,3.00
2018-01-30T14:15:41.891Z,2.75
2018-01-30T14:18:10.080Z,2.20
2018-01-30T14:20:38.165Z,2.77
2018-01-30T14:23:07.074Z,3.60
2018-01-30T14:25:35.201Z,3.12
2018-01-30T14:28:03.336Z,8.38
2018-01-30T14:30:31.461Z,3.20
2018-01-30T14:33:00.355Z,4.32
2018-01-30T14:35:29.268Z,3.33
2018-01-30T14:37:57.395Z,2.78
2018-01-30T14:40:25.520Z,2.80
2018-01-30T14:42:53.643Z,2.75
2018-01-30T14:45:21.775Z,4.80
2018-01-30T14:47:49.923Z,3.25
2018-01-30T14:50:18.100Z,3.50
2018-01-30T14:52:46.194Z,2.70
2018-01-30T14:55:14.352Z,3.25
2018-01-30T14:57:42.490Z,2.40
2018-01-30T15:00:11.376Z,3.03
2018-01-30T15:02:39.511Z,2.95
2018-01-30T15:05:07.649Z,3.97
2018-01-30T15:07:35.812Z,4.20
2018-01-30T15:10:03.903Z,5.00
2018-01-30T15:12:32.019Z,3.30
2018-01-30T15:15:00.170Z,4.10
2018-01-30T15:17:28.302Z,3.70
2018-01-30T15:19:57.185Z,3.65
2018-01-30T15:22:26.069Z,3.92
2018-01-30T15:24:54.983Z,3.42
2018-01-30T15:27:23.118Z,3.70
2018-01-30T15:29:51.231Z,3.20
2018-01-30T15:32:19.383Z,3.70
2018-01-30T15:34:48.266Z,3.17
2018-01-30T15:37:17.179Z,3.28
2018-01-30T15:39:46.053Z,3.40
2018-01-30T15:42:14.966Z,3.25
2018-01-30T15:44:43.073Z,3.30
2018-01-30T15:47:11.243Z,3.28
2018-01-30T15:49:39.374Z,3.00
2018-01-30T15:52:07.500Z,3.55
2018-01-30T15:54:35.742Z,3.72
2018-01-30T15:57:03.842Z,3.70
2018-01-30T15:59:31.959Z,3.78
2018-01-30T16:02:00.094Z,3.80
2018-01-30T16:04:29.052Z,3.67
2018-01-30T16:06:57.893Z,3.55
2018-01-30T16:09:26.809Z,4.50
2018-01-30T16:11:54.943Z,4.22
2018-01-30T16:14:23.047Z,4.20
2018-01-30T16:16:51.188Z,4.30
2018-01-30T16:19:20.082Z,3.85
2018-01-30T16:21:48.197Z,4.82
2018-01-30T16:24:16.330Z,4.75
2018-01-30T16:26:45.242Z,4.32
2018-01-30T16:29:14.130Z,4.93
2018-01-30T16:31:42.279Z,4.15
2018-01-30T16:34:10.437Z,5.07
2018-01-30T16:36:38.563Z,4.20
2018-01-30T16:39:06.717Z,5.20
2018-01-30T16:41:34.877Z,4.30
2018-01-30T16:44:03.806Z,4.28
2018-01-30T16:46:31.935Z,5.37
2018-01-30T16:49:00.057Z,5.53
2018-01-30T16:51:28.177Z,7.05
2018-01-30T16:53:57.098Z,6.03
2018-01-30T16:56:25.223Z,4.95
2018-01-30T16:58:53.355Z,9.18
2018-01-30T17:01:21.481Z,7.70
2018-01-30T17:03:50.406Z,8.80
2018-01-30T17:06:18.569Z,8.83
2018-01-30T17:08:46.730Z,8.13
2018-01-30T17:11:14.943Z,7.30
2018-01-30T17:13:43.082Z,7.40
2018-01-30T17:16:11.963Z,9.45
2018-01-30T17:18:40.871Z,7.82
2018-01-30T17:21:08.976Z,7.70
2018-01-30T17:23:37.162Z,10.00
2018-01-30T17:26:06.130Z,8.90
2018-01-30T17:28:34.252Z,8.55
2018-01-30T17:31:03.184Z,9.75
2018-01-30T17:33:31.325Z,8.90
2018-01-30T17:36:00.276Z,7.53
2018-01-30T17:38:28.418Z,7.32
2018-01-30T17:40:56.565Z,6.72
2018-01-30T17:43:24.702Z,6.78
2018-01-30T17:45:52.852Z,7.78
2018-01-30T17:48:20.996Z,8.55
2018-01-30T17:50:49.882Z,10.03
2018-01-30T17:53:18.027Z,9.38
2018-01-30T17:55:46.178Z,8.50
2018-01-30T17:58:14.308Z,7.87
2018-01-30T18:00:42.488Z,8.17
2018-01-30T18:03:10.634Z,7.68
2018-01-30T18:05:39.501Z,8.50
2018-01-30T18:08:07.631Z,9.57
2018-01-30T18:10:35.893Z,17.58
2018-01-30T18:13:04.841Z,15.02
2018-01-30T18:15:32.967Z,12.68
2018-01-30T18:18:01.107Z,13.80
2018-01-30T18:20:29.267Z,11.50
2018-01-30T18:22:58.187Z,13.25
2018-01-30T18:25:26.318Z,23.90
2018-01-30T18:27:54.490Z,19.30
2018-01-30T18:30:22.638Z,14.27
2018-01-30T18:32:51.567Z,12.88
2018-01-30T18:35:19.668Z,12.37
2018-01-30T18:37:47.826Z,12.05
2018-01-30T18:40:16.023Z,9.20
2018-01-30T18:42:44.197Z,10.52
2018-01-30T18:45:12.317Z,9.32
2018-01-30T18:47:40.474Z,9.95
2018-01-30T18:50:08.625Z,10.77
2018-01-30T18:52:36.770Z,12.35
2018-01-30T18:55:04.989Z,12.63
2018-01-30T18:57:33.146Z,11.90
2018-01-30T19:00:01.361Z,11.93
2018-01-30T19:02:29.498Z,13.90
2018-01-30T19:04:57.749Z,16.42
2018-01-30T19:07:25.950Z,15.48
2018-01-30T19:09:54.139Z,12.90
2018-01-30T19:12:23.087Z,12.63
2018-01-30T19:14:51.234Z,10.25
2018-01-30T19:17:20.153Z,9.30
2018-01-30T19:19:48.290Z,9.50
2018-01-30T19:22:17.312Z,8.10
2018-01-30T19:24:46.226Z,10.68
2018-01-30T19:27:14.345Z,23.42
2018-01-30T19:29:43.287Z,16.85
2018-01-30T19:32:11.435Z,14.00
2018-01-30T19:34:39.775Z,15.25
2018-01-30T19:37:07.946Z,13.35
2018-01-30T19:39:36.129Z,13.50
2018-01-30T19:42:05.138Z,14.35
2018-01-30T19:44:34.045Z,13.70
2018-01-30T19:47:02.192Z,15.90
2018-01-30T19:49:31.089Z,18.50
2018-01-30T19:51:59.260Z,18.17
2018-01-30T19:54:27.416Z,25.27
2018-01-30T19:56:56.600Z,31.87
2018-01-30T19:59:24.771Z,32.70
2018-01-30T20:01:52.932Z,24.37
2018-01-30T20:04:21.110Z,21.67
2018-01-30T20:06:49.262Z,17.13
2018-01-30T20:09:17.411Z,14.32
2018-01-30T20:11:45.585Z,13.25
2018-01-30T20:14:13.747Z,13.32
2018-01-30T20:16:42.056Z,12.70
2018-01-30T20:19:10.241Z,12.85
2018-01-30T20:21:38.440Z,17.08
2018-01-30T20:24:07.521Z,15.98
2018-01-30T20:26:41.340Z,13.23
2018-01-30T20:29:09.496Z,13.75
2018-01-30T20:31:37.709Z,18.35
2018-01-30T20:34:06.612Z,19.67
2018-01-30T20:36:34.883Z,17.57
2018-01-30T20:39:03.802Z,16.05
2018-01-30T20:41:32.011Z,14.38
2018-01-30T20:44:00.146Z,11.45
2018-01-30T20:46:28.348Z,12.57
2018-01-30T20:48:56.535Z,11.85
2018-01-30T20:51:24.727Z,13.03
2018-01-30T20:53:52.924Z,12.98
2018-01-30T20:56:21.086Z,12.43
2018-01-30T20:58:50.015Z,11.27
2018-01-30T21:01:18.196Z,10.77
2018-01-30T21:03:46.367Z,11.93
2018-01-30T21:06:14.521Z,11.68
2018-01-30T21:08:42.704Z,12.37
2018-01-30T21:11:11.158Z,22.98
2018-01-30T21:13:39.356Z,23.80
2018-01-30T21:16:07.515Z,12.45
2018-01-30T21:18:35.702Z,16.90
2018-01-30T21:21:03.867Z,16.23
2018-01-30T21:23:32.002Z,12.00
2018-01-30T21:26:00.914Z,10.88
2018-01-30T21:28:29.082Z,10.45
2018-01-30T21:30:57.237Z,11.55
2018-01-30T21:33:26.163Z,10.65
2018-01-30T21:35:54.357Z,10.90
2018-01-30T21:38:22.537Z,13.55
2018-01-30T21:40:50.688Z,14.52
2018-01-30T21:43:18.904Z,14.50
2018-01-30T21:45:47.043Z,14.05
2018-01-30T21:48:15.187Z,12.35
2018-01-30T21:50:43.361Z,11.30
2018-01-30T21:53:11.602Z,10.82
2018-01-30T21:55:39.775Z,11.93
2018-01-30T21:58:08.700Z,9.80
2018-01-30T22:00:36.855Z,11.10
2018-01-30T22:03:05.729Z,11.48
2018-01-30T22:05:34.000Z,11.60
2018-01-30T22:08:02.228Z,11.50
2018-01-30T22:10:30.370Z,10.40
2018-01-30T22:12:59.372Z,12.50
2018-01-30T22:15:27.532Z,9.63
2018-01-30T22:17:56.472Z,8.38
2018-01-30T22:20:24.579Z,11.88
2018-01-30T22:22:53.530Z,17.15
2018-01-30T22:25:21.841Z,12.20
2018-01-30T22:27:50.765Z,10.20
2018-01-30T22:30:18.932Z,12.43
2018-01-30T22:32:47.069Z,9.35
2018-01-30T22:35:15.322Z,9.80
2018-01-30T22:37:43.737Z,10.77
2018-01-30T22:40:12.088Z,10.95
2018-01-30T22:42:40.215Z,8.75
2018-01-30T22:45:08.380Z,9.30
